Time;durP1;ratioP1;P1;durP2;ratioP2;P2;SDS_P1;SDS_P2;PMS_P1;PMS_P2;Temp;Humidity;BMP_temperature;BMP_pressure;BME280_temperature;BME280_humidity;BME280_pressure;Samples;Min_cycle;Max_cycle;Signal;HPM_P1;HPM_P2
2020/12/15 00:00:32;;;;;;;65.68;28.98;;;179.50;2099.20;;;;;;5072609;28;20097;-58
2020/12/15 00:02:57;;;;;;;66.15;31.52;;;179.50;2124.80;;;;;;5073047;28;20043;-60
2020/12/15 00:05:23;;;;;;;64.25;30.42;;;179.50;2124.80;;;;;;5073256;28;20041;-60
2020/12/15 00:07:49;;;;;;;77.03;35.78;;;179.50;2124.80;;;;;;5070256;28;20028;-62
2020/12/15 00:10:14;;;;;;;75.00;33.75;;;179.50;2124.80;;;;;;5072781;28;20048;-70
2020/12/15 00:12:41;;;;;;;83.97;37.20;;;179.50;2124.80;;;;;;5072591;28;20028;-64
2020/12/15 00:15:08;;;;;;;75.20;32.08;;;179.40;2124.80;;;;;;5055599;28;20428;-65
2020/12/15 00:17:33;;;;;;;70.47;33.88;;;179.60;2099.20;;;;;;5072380;28;20360;-60
2020/12/15 00:19:59;;;;;;;62.58;28.67;;;179.50;2124.80;;;;;;5072178;28;20036;-59
2020/12/15 00:22:25;;;;;;;65.75;29.85;;;179.50;2099.20;;;;;;5072827;28;20040;-64
2020/12/15 00:24:50;;;;;;;66.95;30.30;;;179.60;2099.20;;;;;;5055006;28;20025;-62
2020/12/15 00:27:16;;;;;;;64.28;30.15;;;179.50;2124.80;;;;;;5072996;28;20537;-65
2020/12/15 00:29:42;;;;;;;66.50;29.65;;;179.50;2124.80;;;;;;5072400;28;20513;-61
2020/12/15 00:32:10;;;;;;;65.35;28.85;;;179.40;2124.80;;;;;;5071985;28;20045;-60
2020/12/15 00:34:36;;;;;;;74.15;31.50;;;179.50;2124.80;;;;;;5072842;28;20013;-62
2020/12/15 00:37:02;;;;;;;65.68;31.17;;;179.50;2124.80;;;;;;5072275;28;20052;-58
2020/12/15 00:39:28;;;;;;;71.60;31.33;;;179.60;2124.80;;;;;;5072534;28;20024;-66
2020/12/15 00:41:54;;;;;;;63.75;30.20;;;179.60;2099.20;;;;;;5072537;28;20025;-61
2020/12/15 00:44:19;;;;;;;70.63;30.23;;;179.60;2124.80;;;;;;5072652;28;20029;-60
2020/12/15 00:46:49;;;;;;;67.18;30.90;;;179.60;2124.80;;;;;;5072105;28;20095;-59
2020/12/15 00:49:15;;;;;;;63.78;30.45;;;179.70;2099.20;;;;;;5072614;28;20013;-63
2020/12/15 00:51:41;;;;;;;69.32;31.08;;;179.60;2099.20;;;;;;5073048;28;20044;-64
2020/12/15 00:54:07;;;;;;;65.25;30.42;;;179.60;2124.80;;;;;;5072749;28;20033;-64
2020/12/15 00:56:32;;;;;;;61.08;29.55;;;179.70;2099.20;;;;;;5072771;28;20077;-64
2020/12/15 00:58:58;;;;;;;59.53;28.38;;;179.60;2124.80;;;;;;5072569;28;20059;-65
2020/12/15 01:01:24;;;;;;;67.32;29.58;;;179.60;2124.80;;;;;;5072191;28;20048;-66
2020/12/15 01:03:49;;;;;;;53.40;26.75;;;179.60;2099.20;;;;;;5072693;28;20029;-65
2020/12/15 01:06:15;;;;;;;56.63;26.80;;;179.70;2073.60;;;;;;5070698;28;20049;-64
2020/12/15 01:08:41;;;;;;;59.40;28.55;;;179.70;2073.60;;;;;;5073145;28;20107;-66
2020/12/15 01:11:06;;;;;;;64.45;28.63;;;179.60;2099.20;;;;;;5072146;28;20086;-64
2020/12/15 01:13:32;;;;;;;59.33;28.13;;;179.50;2099.20;;;;;;5072652;28;20024;-60
2020/12/15 01:16:04;;;;;;;50.05;24.35;;;179.60;2099.20;;;;;;5072441;28;20091;-59
2020/12/15 01:18:31;;;;;;;61.13;27.48;;;179.60;2073.60;;;;;;5072705;28;20021;-62
2020/12/15 01:20:56;;;;;;;56.83;27.02;;;179.70;2073.60;;;;;;5072500;28;20020;-61
2020/12/15 01:23:22;;;;;;;54.40;24.27;;;179.70;2073.60;;;;;;5072405;28;20028;-65
2020/12/15 01:25:48;;;;;;;55.85;25.15;;;179.60;2048.00;;;;;;5072124;28;20535;-62
2020/12/15 01:28:13;;;;;;;52.70;25.15;;;179.70;2048.00;;;;;;5071953;28;20439;-62
2020/12/15 01:30:39;;;;;;;47.58;25.58;;;179.70;2073.60;;;;;;5071871;28;20371;-63
2020/12/15 01:33:05;;;;;;;55.05;25.17;;;179.70;2073.60;;;;;;5071026;28;20405;-64
2020/12/15 01:35:31;;;;;;;51.42;25.73;;;179.70;2073.60;;;;;;5072264;28;20016;-68
2020/12/15 01:37:56;;;;;;;49.10;23.55;;;179.70;2048.00;;;;;;5054529;28;20530;-62
2020/12/15 01:40:22;;;;;;;51.17;24.67;;;179.80;2048.00;;;;;;5072245;28;20359;-61
2020/12/15 01:42:47;;;;;;;54.42;24.45;;;179.80;2048.00;;;;;;5071902;28;20394;-60
2020/12/15 01:45:13;;;;;;;47.42;23.67;;;179.80;2048.00;;;;;;5054207;28;20024;-57
2020/12/15 01:47:40;;;;;;;48.00;24.08;;;179.60;2073.60;;;;;;5070987;28;20378;-59
2020/12/15 01:50:06;;;;;;;46.60;23.55;;;179.50;2073.60;;;;;;5071905;28;20112;-60
2020/12/15 01:52:32;;;;;;;47.78;24.25;;;179.50;2099.20;;;;;;5069196;28;20119;-62
2020/12/15 01:54:59;;;;;;;52.65;25.23;;;179.40;2099.20;;;;;;5072140;28;20531;-62
2020/12/15 01:57:25;;;;;;;59.40;26.55;;;179.30;2124.80;;;;;;5070848;28;20023;-62
2020/12/15 01:59:51;;;;;;;58.42;25.40;;;179.20;2150.40;;;;;;5070593;28;20028;-63
2020/12/15 02:02:19;;;;;;;58.70;26.60;;;179.40;2124.80;;;;;;5054435;28;20037;-58
2020/12/15 02:04:47;;;;;;;55.80;24.73;;;179.30;2124.80;;;;;;5071960;28;20043;-62
2020/12/15 02:07:13;;;;;;;61.10;25.02;;;179.40;2124.80;;;;;;5071739;28;20067;-70
2020/12/15 02:09:39;;;;;;;61.97;27.08;;;179.20;2150.40;;;;;;5071640;28;20078;-68
2020/12/15 02:12:05;;;;;;;61.55;27.83;;;179.30;2124.80;;;;;;5071054;28;20040;-66
2020/12/15 02:14:31;;;;;;;56.13;24.40;;;179.40;2124.80;;;;;;5070014;28;20017;-66
2020/12/15 02:16:57;;;;;;;68.00;26.45;;;179.60;2099.20;;;;;;5071284;28;20028;-68
2020/12/15 02:19:23;;;;;;;67.03;28.50;;;179.60;2099.20;;;;;;5071327;28;20078;-70
2020/12/15 02:22:01;;;;;;;53.90;25.30;;;179.60;2073.60;;;;;;5071396;28;20455;-69
2020/12/15 02:24:28;;;;;;;60.03;25.03;;;179.60;2099.20;;;;;;5071609;28;20046;-67
2020/12/15 02:26:55;;;;;;;54.97;24.70;;;179.50;2099.20;;;;;;5071116;28;20676;-67
2020/12/15 02:29:21;;;;;;;48.25;22.88;;;179.60;2099.20;;;;;;5071919;28;20040;-65
2020/12/15 02:31:47;;;;;;;54.95;23.63;;;179.60;2099.20;;;;;;5071868;28;20071;-68
2020/12/15 02:34:13;;;;;;;56.45;23.52;;;179.60;2099.20;;;;;;5072605;28;20033;-64
2020/12/15 02:36:41;;;;;;;55.63;23.48;;;179.60;2073.60;;;;;;5072616;28;20040;-71
2020/12/15 02:39:13;;;;;;;55.07;22.70;;;179.60;2099.20;;;;;;5054852;28;20036;-68
2020/12/15 02:41:38;;;;;;;54.97;22.92;;;179.50;2099.20;;;;;;5071958;28;20265;-66
2020/12/15 02:44:06;;;;;;;53.47;23.63;;;179.60;2073.60;;;;;;5072020;28;20021;-70
2020/12/15 02:46:31;;;;;;;51.35;24.05;;;179.60;2073.60;;;;;;5070846;28;20100;-62
2020/12/15 02:48:57;;;;;;;55.13;22.67;;;179.60;2073.60;;;;;;5063775;28;20108;-70
2020/12/15 02:51:24;;;;;;;51.97;21.90;;;179.60;2073.60;;;;;;5070080;28;20036;-64
2020/12/15 02:53:50;;;;;;;51.78;24.48;;;179.70;2073.60;;;;;;5072261;28;20016;-64
2020/12/15 02:56:23;;;;;;;58.17;25.30;;;179.70;2073.60;;;;;;5072205;28;20040;-66
2020/12/15 02:58:50;;;;;;;57.30;22.40;;;179.60;2073.60;;;;;;5072180;28;20042;-66
2020/12/15 03:01:16;;;;;;;54.17;23.42;;;179.70;2073.60;;;;;;5071911;28;20495;-65
2020/12/15 03:03:42;;;;;;;47.70;21.10;;;179.70;2048.00;;;;;;5072187;28;20036;-66
2020/12/15 03:06:08;;;;;;;45.92;20.02;;;179.80;2048.00;;;;;;5071851;28;20126;-65
2020/12/15 03:08:34;;;;;;;52.50;23.15;;;179.70;2048.00;;;;;;5072180;28;20466;-66
2020/12/15 03:11:01;;;;;;;54.55;22.77;;;179.60;2073.60;;;;;;5072090;28;20036;-64
2020/12/15 03:13:27;;;;;;;53.58;21.70;;;179.50;2073.60;;;;;;5071464;28;20024;-65
2020/12/15 03:15:53;;;;;;;52.10;23.60;;;179.50;2073.60;;;;;;5071979;28;20037;-65
2020/12/15 03:18:19;;;;;;;51.55;22.40;;;179.60;2073.60;;;;;;5071859;28;20035;-64
2020/12/15 03:20:48;;;;;;;50.38;22.95;;;179.50;2099.20;;;;;;5072152;28;20024;-64
2020/12/15 03:23:16;;;;;;;53.17;24.17;;;179.50;2099.20;;;;;;5071807;28;20024;-65
2020/12/15 03:25:41;;;;;;;49.90;21.88;;;179.50;2099.20;;;;;;5071998;28;20078;-65
2020/12/15 03:28:07;;;;;;;54.25;22.58;;;179.60;2073.60;;;;;;5072102;28;20486;-66
2020/12/15 03:30:34;;;;;;;48.28;21.88;;;179.60;2073.60;;;;;;5071812;28;20031;-66
2020/12/15 03:33:00;;;;;;;53.60;21.63;;;179.50;2099.20;;;;;;5069732;28;20039;-66
2020/12/15 03:35:27;;;;;;;49.95;21.70;;;179.50;2099.20;;;;;;5071699;28;20522;-66
2020/12/15 03:37:56;;;;;;;46.80;20.90;;;179.50;2099.20;;;;;;5071772;28;20493;-68
2020/12/15 03:40:23;;;;;;;54.60;22.75;;;179.50;2099.20;;;;;;5071951;28;20024;-64
2020/12/15 03:42:49;;;;;;;52.50;22.08;;;179.60;2099.20;;;;;;5071796;28;20155;-65
2020/12/15 03:45:15;;;;;;;54.35;23.33;;;179.40;2099.20;;;;;;5071352;28;20029;-65
2020/12/15 03:47:42;;;;;;;54.45;23.88;;;179.60;2099.20;;;;;;5071849;28;20021;-65
2020/12/15 03:50:09;;;;;;;54.83;23.02;;;179.40;2124.80;;;;;;5071944;28;20017;-66
2020/12/15 03:52:36;;;;;;;54.55;22.75;;;179.30;2124.80;;;;;;5071518;28;20056;-66
2020/12/15 03:55:06;;;;;;;57.00;22.80;;;179.50;2099.20;;;;;;5054090;28;20035;-65
2020/12/15 03:57:32;;;;;;;49.40;21.55;;;179.50;2099.20;;;;;;5075189;28;20031;-67
2020/12/15 03:59:58;;;;;;;52.15;24.40;;;179.60;2099.20;;;;;;5075738;28;20100;-67
2020/12/15 04:02:24;;;;;;;47.42;19.63;;;179.40;2099.20;;;;;;5075356;28;20029;-67
2020/12/15 04:04:51;;;;;;;43.83;20.55;;;179.50;2099.20;;;;;;5075058;28;20181;-66
2020/12/15 04:07:16;;;;;;;43.88;19.35;;;179.50;2099.20;;;;;;5075208;28;20372;-66
2020/12/15 04:09:46;;;;;;;45.95;19.13;;;179.60;2099.20;;;;;;5075116;28;20032;-66
2020/12/15 04:12:12;;;;;;;50.70;22.73;;;179.60;2073.60;;;;;;5075491;28;20111;-66
2020/12/15 04:14:39;;;;;;;45.53;21.00;;;179.60;2073.60;;;;;;5074660;28;20047;-66
2020/12/15 04:17:05;;;;;;;47.55;20.65;;;179.60;2073.60;;;;;;5075325;28;20118;-66
2020/12/15 04:19:31;;;;;;;43.15;20.45;;;179.60;2073.60;;;;;;5075158;28;20033;-66
2020/12/15 04:21:56;;;;;;;41.20;19.40;;;179.50;2073.60;;;;;;5075168;28;20029;-66
2020/12/15 04:24:22;;;;;;;36.20;17.00;;;179.60;2048.00;;;;;;5074945;28;20071;-66
2020/12/15 04:26:47;;;;;;;40.95;16.98;;;179.50;2048.00;;;;;;5074866;28;20024;-66
2020/12/15 04:29:13;;;;;;;37.97;17.83;;;179.60;2048.00;;;;;;5074958;28;20017;-66
2020/12/15 04:31:39;;;;;;;32.10;16.85;;;179.60;2022.40;;;;;;5074544;28;20032;-67
2020/12/15 04:34:04;;;;;;;35.05;16.98;;;179.50;2048.00;;;;;;5074771;28;20115;-66
2020/12/15 04:36:30;;;;;;;36.53;17.25;;;179.60;2048.00;;;;;;5074605;28;20082;-66
2020/12/15 04:38:56;;;;;;;34.88;16.48;;;179.60;2022.40;;;;;;5074855;28;20069;-66
2020/12/15 04:41:22;;;;;;;32.90;15.43;;;179.60;1996.80;;;;;;5074628;28;20056;-67
2020/12/15 04:43:48;;;;;;;31.58;15.68;;;179.70;1996.80;;;;;;5074330;28;20020;-67
2020/12/15 04:46:20;;;;;;;30.52;15.80;;;179.70;1971.20;;;;;;5074290;28;20033;-67
2020/12/15 04:48:57;;;;;;;40.25;22.67;;;179.70;1971.20;;;;;;5074622;28;20099;-67
2020/12/15 04:51:25;;;;;;;85.30;62.53;;;179.70;1971.20;;;;;;5074390;28;20025;-66
2020/12/15 04:53:54;;;;;;;35.70;22.42;;;179.70;1971.20;;;;;;5074567;28;20021;-66
2020/12/15 04:56:31;;;;;;;30.65;15.93;;;179.60;1971.20;;;;;;5074332;28;20056;-67
2020/12/15 04:58:57;;;;;;;38.58;20.15;;;179.50;1971.20;;;;;;5074285;28;20063;-67
2020/12/15 05:01:24;;;;;;;39.72;22.80;;;179.60;1996.80;;;;;;5073792;28;20032;-67
2020/12/15 05:03:52;;;;;;;40.33;25.15;;;179.60;1971.20;;;;;;5074283;28;20029;-67
2020/12/15 05:06:27;;;;;;;35.95;17.92;;;179.70;1971.20;;;;;;5072520;28;20490;-67
2020/12/15 05:08:53;;;;;;;30.48;16.52;;;179.50;1996.80;;;;;;5073998;28;20019;-65
2020/12/15 05:11:20;;;;;;;32.88;17.67;;;179.70;1971.20;;;;;;5073797;28;20033;-67
2020/12/15 05:13:46;;;;;;;36.85;18.23;;;179.70;1971.20;;;;;;5073820;28;20483;-64
2020/12/15 05:16:11;;;;;;;31.52;15.35;;;179.70;1971.20;;;;;;5073711;28;20020;-67
2020/12/15 05:18:37;;;;;;;36.33;20.40;;;179.60;1971.20;;;;;;5073972;28;20066;-67
2020/12/15 05:21:16;;;;;;;31.33;17.73;;;179.70;1971.20;;;;;;5074000;28;20568;-65
2020/12/15 05:23:49;;;;;;;30.00;16.30;;;179.60;1971.20;;;;;;5073975;28;20055;-67
2020/12/15 05:26:22;;;;;;;29.92;15.57;;;179.70;1945.60;;;;;;5073571;28;20028;-66
2020/12/15 05:28:59;;;;;;;31.02;17.48;;;179.80;1920.00;;;;;;5073487;28;20038;-66
2020/12/15 05:31:24;;;;;;;32.33;19.63;;;179.80;1894.40;;;;;;5073439;28;20476;-66
2020/12/15 05:33:51;;;;;;;30.30;17.00;;;179.90;1868.80;;;;;;5074089;28;20063;-66
2020/12/15 05:36:23;;;;;;;32.13;16.77;;;179.70;1894.40;;;;;;5073597;28;20035;-66
2020/12/15 05:39:08;;;;;;;110.75;100.07;;;179.80;1894.40;;;;;;5073183;28;20025;-65
2020/12/15 05:41:34;;;;;;;28.05;19.27;;;179.80;1894.40;;;;;;5073316;28;20378;-65
2020/12/15 05:44:01;;;;;;;33.55;19.55;;;179.80;1894.40;;;;;;5073428;28;20033;-65
2020/12/15 05:46:30;;;;;;;30.73;16.90;;;179.70;1894.40;;;;;;5073107;28;20483;-66
2020/12/15 05:49:04;;;;;;;29.23;17.48;;;179.80;1894.40;;;;;;5073237;28;20490;-65
2020/12/15 05:51:40;;;;;;;32.53;18.00;;;179.60;1920.00;;;;;;5073304;28;20513;-66
2020/12/15 05:54:11;;;;;;;28.45;17.63;;;179.60;1894.40;;;;;;5060884;28;20039;-65
2020/12/15 05:56:38;;;;;;;30.23;14.57;;;179.70;1920.00;;;;;;5072934;28;20094;-65
2020/12/15 05:59:19;;;;;;;28.50;15.48;;;179.60;1894.40;;;;;;5073181;28;20024;-66
2020/12/15 06:01:49;;;;;;;29.73;14.68;;;179.60;1920.00;;;;;;5072990;28;20473;-65
2020/12/15 06:04:15;;;;;;;33.78;18.75;;;179.70;1894.40;;;;;;5073163;28;20020;-65
2020/12/15 06:06:42;;;;;;;23.23;13.57;;;179.90;1868.80;;;;;;5072552;28;20055;-65
2020/12/15 06:09:18;;;;;;;30.15;17.92;;;179.90;1868.80;;;;;;5073027;28;20106;-65
2020/12/15 06:11:45;;;;;;;20.95;12.20;;;179.80;1868.80;;;;;;5073059;28;20359;-65
2020/12/15 06:14:13;;;;;;;19.35;11.55;;;179.60;1868.80;;;;;;5072779;28;20028;-65
2020/12/15 06:16:39;;;;;;;37.70;19.77;;;179.90;1868.80;;;;;;5072456;28;20028;-65
2020/12/15 06:19:10;;;;;;;26.38;14.10;;;179.90;1868.80;;;;;;5072242;28;20020;-65
2020/12/15 06:21:40;;;;;;;25.25;13.43;;;179.90;1868.80;;;;;;5072640;28;20032;-66
2020/12/15 06:24:06;;;;;;;32.83;15.38;;;179.90;1868.80;;;;;;5072785;28;20032;-64
2020/12/15 06:26:33;;;;;;;32.90;14.65;;;179.80;1894.40;;;;;;5072585;28;20078;-66
2020/12/15 06:29:00;;;;;;;30.60;15.35;;;179.80;1894.40;;;;;;5072881;28;20170;-66
2020/12/15 06:31:27;;;;;;;26.88;14.23;;;179.80;1894.40;;;;;;5072275;28;20037;-65
2020/12/15 06:34:00;;;;;;;25.25;12.60;;;179.80;1894.40;;;;;;5073186;28;20351;-65
2020/12/15 06:36:31;;;;;;;28.63;13.10;;;179.80;1894.40;;;;;;5072477;28;20351;-65
2020/12/15 06:38:59;;;;;;;27.77;14.05;;;179.80;1868.80;;;;;;5072713;28;20158;-65
2020/12/15 06:41:27;;;;;;;15.05;9.77;;;179.70;1868.80;;;;;;5072478;28;20458;-65
2020/12/15 06:44:04;;;;;;;15.65;9.05;;;179.90;1868.80;;;;;;5072430;28;20416;-64
2020/12/15 06:46:30;;;;;;;17.05;10.38;;;180.00;1843.20;;;;;;5045566;28;20211;-64
2020/12/15 06:48:56;;;;;;;15.25;8.35;;;179.90;1843.20;;;;;;5071668;28;20020;-65
2020/12/15 06:51:34;;;;;;;15.32;8.10;;;179.90;1843.20;;;;;;5071585;28;20400;-64
2020/12/15 06:54:08;;;;;;;11.63;7.97;;;180.00;1817.60;;;;;;5072136;28;20021;-64
2020/12/15 06:56:37;;;;;;;11.90;8.52;;;179.90;1817.60;;;;;;5071619;28;20032;-65
2020/12/15 06:59:07;;;;;;;12.90;8.68;;;179.90;1817.60;;;;;;5072486;28;20374;-65
2020/12/15 07:01:33;;;;;;;15.55;10.48;;;179.90;1817.60;;;;;;5070912;28;20086;-65
2020/12/15 07:04:03;;;;;;;21.42;13.45;;;179.80;1843.20;;;;;;5072408;28;20031;-65
2020/12/15 07:06:29;;;;;;;21.95;14.23;;;179.90;1843.20;;;;;;5071945;28;20518;-64
2020/12/15 07:09:01;;;;;;;21.42;14.52;;;179.90;1817.60;;;;;;5072665;28;20054;-64
2020/12/15 07:11:27;;;;;;;17.48;9.95;;;180.00;1843.20;;;;;;5053430;28;20051;-64
2020/12/15 07:14:02;;;;;;;15.13;8.80;;;180.00;1817.60;;;;;;5072004;28;20095;-65
2020/12/15 07:16:28;;;;;;;11.95;7.82;;;180.10;1817.60;;;;;;5072209;28;20386;-65
2020/12/15 07:18:55;;;;;;;12.57;8.05;;;180.00;1817.60;;;;;;5072226;28;20029;-65
2020/12/15 07:21:23;;;;;;;13.40;8.77;;;179.90;1843.20;;;;;;5072186;28;20039;-65
2020/12/15 07:23:50;;;;;;;15.98;8.60;;;180.00;1817.60;;;;;;5072245;28;20020;-64
2020/12/15 07:26:18;;;;;;;18.85;9.10;;;180.10;1817.60;;;;;;5072051;28;20048;-65
2020/12/15 07:28:48;;;;;;;12.68;8.50;;;179.90;1817.60;;;;;;5072100;28;20024;-65
2020/12/15 07:31:26;;;;;;;14.80;9.05;;;179.70;1868.80;;;;;;5074367;28;20056;-64
2020/12/15 07:34:07;;;;;;;16.98;9.88;;;179.60;1868.80;;;;;;5076024;28;20016;-65
2020/12/15 07:36:35;;;;;;;21.73;14.13;;;179.70;1894.40;;;;;;5075670;28;20012;-66
2020/12/15 07:39:04;;;;;;;20.75;15.15;;;179.60;1894.40;;;;;;5075787;28;20082;-64
2020/12/15 07:41:30;;;;;;;23.75;16.48;;;179.70;1894.40;;;;;;5075515;28;20032;-66
2020/12/15 07:43:56;;;;;;;24.60;16.02;;;179.80;1868.80;;;;;;5076018;28;20383;-65
2020/12/15 07:46:25;;;;;;;22.25;12.88;;;179.90;1868.80;;;;;;5075282;28;20115;-64
2020/12/15 07:48:53;;;;;;;19.17;12.57;;;180.00;1843.20;;;;;;5075602;28;20031;-65
2020/12/15 07:51:19;;;;;;;20.33;11.80;;;179.90;1868.80;;;;;;5075323;28;20375;-65
2020/12/15 07:53:52;;;;;;;23.95;13.30;;;179.70;1868.80;;;;;;5075400;28;20095;-65
2020/12/15 07:56:19;;;;;;;20.60;11.02;;;179.60;1894.40;;;;;;5075233;28;20063;-67
2020/12/15 07:58:52;;;;;;;20.77;11.82;;;179.70;1868.80;;;;;;5075222;28;20052;-66
2020/12/15 08:01:22;;;;;;;20.45;11.15;;;179.60;1894.40;;;;;;5075074;28;20039;-64
2020/12/15 08:03:48;;;;;;;18.75;10.90;;;179.90;1843.20;;;;;;5075467;28;20532;-64
2020/12/15 08:06:14;;;;;;;18.27;11.15;;;180.10;1843.20;;;;;;5074932;28;20053;-64
2020/12/15 08:08:41;;;;;;;24.15;13.68;;;180.10;1843.20;;;;;;5072007;28;20039;-64
2020/12/15 08:11:14;;;;;;;25.70;13.93;;;204.90;1817.60;;;;;;5074779;28;20025;-66
2020/12/15 08:13:41;;;;;;;24.10;14.05;;;204.90;1817.60;;;;;;5075133;28;20162;-67
2020/12/15 08:16:07;;;;;;;26.02;14.05;;;204.80;1843.20;;;;;;5074963;28;20024;-66
2020/12/15 08:18:34;;;;;;;26.40;14.52;;;180.10;1843.20;;;;;;5075092;28;20047;-66
2020/12/15 08:21:02;;;;;;;28.88;15.20;;;204.80;1843.20;;;;;;5074936;28;20141;-65
2020/12/15 08:23:28;;;;;;;29.93;13.90;;;204.80;1843.20;;;;;;5075201;28;20479;-65
2020/12/15 08:25:57;;;;;;;22.70;12.85;;;180.10;1843.20;;;;;;5074707;28;20035;-65
2020/12/15 08:28:23;;;;;;;22.40;13.25;;;180.10;1843.20;;;;;;5056271;28;20086;-65
2020/12/15 08:30:55;;;;;;;23.48;14.27;;;204.80;1843.20;;;;;;5073094;28;20027;-66
2020/12/15 08:33:26;;;;;;;23.42;14.50;;;205.00;1817.60;;;;;;5072869;28;20032;-66
2020/12/15 08:35:52;;;;;;;27.17;14.73;;;180.10;1843.20;;;;;;5074262;28;20100;-61
2020/12/15 08:38:20;;;;;;;25.92;16.25;;;179.80;1868.80;;;;;;5055254;28;20112;-65
2020/12/15 08:40:52;;;;;;;29.13;16.92;;;180.00;1868.80;;;;;;5072987;28;20035;-63
2020/12/15 08:43:19;;;;;;;25.70;16.17;;;204.80;1843.20;;;;;;5073065;28;20090;-63
2020/12/15 08:45:45;;;;;;;31.83;17.45;;;204.80;1843.20;;;;;;5073859;28;20024;-66
2020/12/15 08:48:17;;;;;;;33.55;17.63;;;180.00;1868.80;;;;;;5073648;28;20054;-61
2020/12/15 08:50:43;;;;;;;33.85;18.50;;;204.80;1843.20;;;;;;5055652;28;20475;-62
2020/12/15 08:53:12;;;;;;;35.40;18.58;;;204.80;1843.20;;;;;;5073709;28;20028;-62
2020/12/15 08:55:45;;;;;;;42.30;21.33;;;204.90;1843.20;;;;;;5074177;28;20520;-61
2020/12/15 08:58:12;;;;;;;42.08;21.45;;;180.10;1843.20;;;;;;5073984;28;20482;-63
2020/12/15 09:00:42;;;;;;;34.85;21.35;;;204.80;1843.20;;;;;;5074059;28;20009;-62
2020/12/15 09:03:11;;;;;;;41.22;22.15;;;204.90;1843.20;;;;;;5056071;28;20024;-62
2020/12/15 09:05:51;;;;;;;40.45;22.70;;;205.00;1817.60;;;;;;5073674;28;20059;-62
2020/12/15 09:08:18;;;;;;;39.90;21.85;;;204.90;1843.20;;;;;;5067938;28;20107;-64
2020/12/15 09:10:44;;;;;;;38.80;24.90;;;204.90;1868.80;;;;;;5067262;28;20034;-64
2020/12/15 09:13:10;;;;;;;46.90;24.15;;;204.80;1868.80;;;;;;5073673;28;20468;-64
2020/12/15 09:16:08;;;;;;;47.13;26.20;;;204.90;1868.80;;;;;;5069829;28;20032;-64
2020/12/15 09:18:36;;;;;;;48.95;26.38;;;204.80;1868.80;;;;;;4990339;28;20074;-65
2020/12/15 09:21:16;;;;;;;49.40;26.35;;;204.90;1868.80;;;;;;4990622;28;20110;-67
2020/12/15 09:23:59;;;;;;;46.20;27.17;;;205.00;1868.80;;;;;;4989259;28;20033;-68
2020/12/15 09:26:25;;;;;;;52.17;27.70;;;205.00;1843.20;;;;;;4989797;28;20077;-66
2020/12/15 09:28:51;;;;;;;53.10;29.20;;;204.90;1868.80;;;;;;4988552;28;20050;-66
2020/12/15 09:31:19;;;;;;;61.55;32.45;;;204.90;1868.80;;;;;;4989338;28;20516;-62
2020/12/15 09:33:45;;;;;;;48.10;29.85;;;205.10;1843.20;;;;;;4991255;28;20485;-62
2020/12/15 09:36:13;;;;;;;53.47;30.33;;;205.00;1843.20;;;;;;4990702;28;20363;-60
2020/12/15 09:38:39;;;;;;;49.75;29.42;;;205.20;1843.20;;;;;;4991543;28;20085;-62
2020/12/15 09:41:05;;;;;;;54.65;30.30;;;204.90;1843.20;;;;;;4990499;28;20034;-60
2020/12/15 09:43:31;;;;;;;49.80;28.73;;;204.90;1868.80;;;;;;4991407;28;20049;-59
2020/12/15 09:45:56;;;;;;;47.28;28.80;;;204.90;1868.80;;;;;;4990229;28;20124;-60
2020/12/15 09:48:22;;;;;;;55.90;30.77;;;205.00;1843.20;;;;;;5040438;28;20042;-60
2020/12/15 09:50:49;;;;;;;48.53;29.45;;;205.10;1843.20;;;;;;5073181;28;20025;-60
2020/12/15 09:53:16;;;;;;;54.80;33.38;;;205.10;1817.60;;;;;;5072347;28;20028;-60
2020/12/15 09:55:42;;;;;;;53.53;31.67;;;205.10;1817.60;;;;;;5073142;28;20485;-60
2020/12/15 09:58:07;;;;;;;58.67;33.63;;;205.20;1792.00;;;;;;5072570;28;20024;-60
2020/12/15 10:00:33;;;;;;;59.65;33.45;;;205.20;1817.60;;;;;;5072476;28;20375;-60
2020/12/15 10:02:59;;;;;;;60.05;34.03;;;205.20;1792.00;;;;;;5071804;28;20040;-60
2020/12/15 10:05:24;;;;;;;61.38;33.65;;;205.40;1792.00;;;;;;5072395;28;20052;-60
2020/12/15 10:07:50;;;;;;;52.97;32.03;;;205.40;1766.40;;;;;;5072634;28;21226;-60
2020/12/15 10:10:16;;;;;;;57.22;32.72;;;205.40;1766.40;;;;;;5069722;28;20082;-60
2020/12/15 10:12:43;;;;;;;51.17;31.33;;;205.50;1766.40;;;;;;5071792;28;20046;-60
2020/12/15 10:15:10;;;;;;;47.00;28.30;;;205.10;1792.00;;;;;;5072382;28;20074;-60
2020/12/15 10:17:37;;;;;;;45.88;28.38;;;204.90;1817.60;;;;;;5071972;28;20024;-60
2020/12/15 10:20:06;;;;;;;51.30;30.95;;;205.10;1817.60;;;;;;5072213;28;20033;-60
2020/12/15 10:22:32;;;;;;;51.42;29.55;;;205.30;1792.00;;;;;;5071938;28;20374;-59
2020/12/15 10:24:58;;;;;;;49.20;29.95;;;205.40;1766.40;;;;;;5072249;28;20017;-60
2020/12/15 10:27:23;;;;;;;45.42;29.63;;;205.40;1766.40;;;;;;5071972;28;20466;-60
2020/12/15 10:29:49;;;;;;;44.08;28.88;;;205.30;1792.00;;;;;;5072236;28;20051;-60
2020/12/15 10:32:15;;;;;;;44.03;25.75;;;205.50;1766.40;;;;;;5069086;28;20048;-60
2020/12/15 10:34:40;;;;;;;42.10;28.20;;;205.20;1792.00;;;;;;5072298;28;20020;-60
2020/12/15 10:37:06;;;;;;;41.80;24.92;;;205.40;1766.40;;;;;;5071979;28;20032;-60
2020/12/15 10:39:32;;;;;;;42.17;26.75;;;205.10;1792.00;;;;;;5071935;28;20083;-60
2020/12/15 10:41:57;;;;;;;43.30;25.10;;;205.30;1792.00;;;;;;5071941;28;20032;-59
2020/12/15 10:44:23;;;;;;;42.97;26.17;;;205.40;1766.40;;;;;;5071873;28;20108;-60
2020/12/15 10:46:50;;;;;;;40.63;25.23;;;205.40;1766.40;;;;;;5072192;28;20020;-60
2020/12/15 10:49:17;;;;;;;40.60;26.33;;;205.50;1740.80;;;;;;5071394;28;20029;-59
2020/12/15 10:51:43;;;;;;;43.42;26.98;;;205.50;1766.40;;;;;;5071252;28;20028;-59
2020/12/15 10:54:09;;;;;;;42.80;26.27;;;205.60;1766.40;;;;;;5071874;28;20024;-60
2020/12/15 10:56:35;;;;;;;37.20;23.60;;;205.60;1740.80;;;;;;5071618;28;20035;-60
2020/12/15 10:59:00;;;;;;;39.75;25.17;;;205.60;1740.80;;;;;;5071523;28;20025;-60
2020/12/15 11:01:28;;;;;;;42.03;25.50;;;205.50;1766.40;;;;;;5071469;28;20037;-59
2020/12/15 11:03:53;;;;;;;41.75;25.80;;;205.60;1740.80;;;;;;5072215;28;20024;-60
2020/12/15 11:06:24;;;;;;;41.97;26.83;;;205.50;1766.40;;;;;;5075140;28;20446;-60
2020/12/15 11:08:49;;;;;;;45.30;27.42;;;205.70;1740.80;;;;;;5075631;28;20046;-60
2020/12/15 11:11:15;;;;;;;46.92;28.35;;;205.60;1740.80;;;;;;5075646;28;20108;-60
2020/12/15 11:13:41;;;;;;;60.42;29.70;;;205.60;1740.80;;;;;;5075543;28;20381;-60
2020/12/15 11:16:07;;;;;;;45.28;27.70;;;205.60;1766.40;;;;;;5075453;28;20024;-62
2020/12/15 11:18:33;;;;;;;42.15;25.88;;;205.70;1766.40;;;;;;5075405;28;20109;-59
2020/12/15 11:20:58;;;;;;;40.97;25.58;;;205.70;1766.40;;;;;;5075635;28;20020;-60
2020/12/15 11:23:24;;;;;;;41.15;27.30;;;230.40;1740.80;;;;;;5075333;28;20021;-61
2020/12/15 11:25:50;;;;;;;48.65;29.35;;;230.40;1740.80;;;;;;5075323;28;20182;-58
2020/12/15 11:28:19;;;;;;;42.67;25.70;;;230.40;1740.80;;;;;;5075348;28;20449;-59
2020/12/15 11:30:45;;;;;;;43.83;25.60;;;205.70;1740.80;;;;;;5075480;28;20029;-57
2020/12/15 11:33:11;;;;;;;41.58;26.60;;;205.40;1792.00;;;;;;5075557;28;20531;-59
2020/12/15 11:35:37;;;;;;;38.03;24.13;;;205.50;1792.00;;;;;;5075028;28;20107;-59
2020/12/15 11:38:04;;;;;;;44.13;27.23;;;205.20;1817.60;;;;;;5075059;28;20071;-58
2020/12/15 11:40:30;;;;;;;41.95;26.50;;;205.30;1792.00;;;;;;5075048;28;20016;-59
2020/12/15 11:42:56;;;;;;;40.95;26.23;;;205.20;1817.60;;;;;;5074938;28;20382;-59
2020/12/15 11:45:24;;;;;;;41.25;25.50;;;205.30;1817.60;;;;;;5075083;28;20095;-59
2020/12/15 11:47:51;;;;;;;41.85;25.33;;;205.20;1817.60;;;;;;5074851;28;20028;-60
2020/12/15 11:50:18;;;;;;;42.88;27.45;;;205.20;1817.60;;;;;;5056893;28;20029;-59
2020/12/15 11:52:43;;;;;;;42.33;26.92;;;205.00;1843.20;;;;;;5070920;28;20048;-59
2020/12/15 11:55:09;;;;;;;41.75;26.70;;;205.00;1843.20;;;;;;5075337;28;20085;-59
2020/12/15 11:57:35;;;;;;;44.92;27.70;;;205.10;1843.20;;;;;;5074772;28;20402;-59
2020/12/15 12:00:04;;;;;;;41.65;26.10;;;205.20;1817.60;;;;;;5075581;28;20035;-60